createdAt,value
2022-11-02T00:01:22.767Z,69.63
2022-11-02T00:03:55.772Z,69.71
2022-11-02T00:06:30.078Z,69.84
2022-11-02T00:09:03.211Z,69.31
2022-11-02T00:11:37.438Z,69.30
2022-11-02T00:14:10.136Z,69.42
2022-11-02T00:16:43.361Z,69.08
2022-11-02T00:19:16.265Z,69.05
2022-11-02T00:21:50.614Z,69.30
2022-11-02T00:24:23.662Z,69.70
2022-11-02T00:26:56.613Z,68.95
2022-11-02T00:29:33.669Z,69.21
2022-11-02T00:32:06.985Z,68.45
2022-11-02T00:34:39.634Z,68.93
2022-11-02T00:37:13.931Z,68.62
2022-11-02T00:39:46.681Z,69.43
2022-11-02T00:42:19.492Z,69.07
2022-11-02T00:44:52.362Z,69.02
2022-11-02T00:47:25.927Z,68.99
2022-11-02T00:49:59.669Z,68.80
2022-11-02T00:52:34.719Z,69.00
2022-11-02T00:55:08.934Z,68.38
2022-11-02T00:57:42.108Z,69.11
2022-11-02T01:00:17.313Z,69.37
2022-11-02T01:02:50.940Z,69.00
2022-11-02T01:05:23.888Z,69.21
2022-11-02T01:07:58.130Z,69.20
2022-11-02T01:10:32.745Z,69.81
2022-11-02T01:13:06.418Z,68.69
2022-11-02T01:15:39.111Z,69.29
2022-11-02T01:18:11.946Z,69.65
2022-11-02T01:20:44.746Z,69.04
2022-11-02T01:23:19.667Z,69.39
2022-11-02T01:25:52.584Z,69.70
2022-11-02T01:28:28.259Z,69.39
2022-11-02T01:31:01.268Z,69.35
2022-11-02T01:33:34.950Z,69.71
2022-11-02T01:36:09.392Z,70.09
2022-11-02T01:38:43.680Z,69.63
2022-11-02T01:41:16.673Z,70.03
2022-11-02T01:43:52.578Z,70.15
2022-11-02T01:46:38.130Z,69.73
2022-11-02T01:49:15.615Z,69.79
2022-11-02T01:51:52.488Z,69.65
2022-11-02T01:54:30.475Z,69.50
2022-11-02T01:57:05.997Z,69.62
2022-11-02T01:59:45.822Z,69.92
2022-11-02T02:02:22.645Z,70.11
2022-11-02T02:05:01.179Z,70.00
2022-11-02T02:07:42.018Z,69.80
2022-11-02T02:10:16.403Z,69.95
2022-11-02T02:12:49.413Z,69.13
2022-11-02T02:15:36.246Z,69.84
2022-11-02T02:18:17.908Z,69.25
2022-11-02T02:21:06.838Z,69.07
2022-11-02T02:24:05.545Z,69.20
2022-11-02T02:27:02.030Z,69.23
2022-11-02T02:29:47.839Z,69.69
2022-11-02T02:32:29.586Z,68.81
2022-11-02T02:35:15.079Z,68.94
2022-11-02T02:37:55.377Z,68.75
2022-11-02T02:40:36.609Z,68.92
2022-11-02T02:43:13.490Z,69.14
2022-11-02T02:45:53.478Z,69.10
2022-11-02T02:48:27.901Z,69.18
2022-11-02T02:51:05.237Z,69.47
2022-11-02T02:53:43.202Z,69.26
2022-11-02T02:56:19.934Z,69.59
2022-11-02T02:58:59.356Z,69.77
2022-11-02T03:01:35.938Z,69.78
2022-11-02T03:04:11.179Z,70.18
2022-11-02T03:06:49.138Z,69.54
2022-11-02T03:09:33.066Z,69.73
2022-11-02T03:12:22.802Z,69.90
2022-11-02T03:15:10.440Z,69.64
2022-11-02T03:17:58.820Z,69.84
2022-11-02T03:20:41.964Z,69.54
2022-11-02T03:23:21.240Z,70.05
2022-11-02T03:26:04.407Z,69.79
2022-11-02T03:28:53.014Z,70.45
2022-11-02T03:31:36.178Z,69.67
2022-11-02T03:34:25.472Z,70.09
2022-11-02T03:37:04.779Z,70.15
2022-11-02T03:39:42.162Z,69.86
2022-11-02T03:42:19.977Z,70.07
2022-11-02T03:45:01.029Z,69.94
2022-11-02T03:47:37.570Z,69.83
2022-11-02T03:50:21.032Z,70.18
2022-11-02T03:53:01.250Z,70.20
2022-11-02T03:55:38.903Z,70.15
2022-11-02T03:58:15.136Z,70.17
2022-11-02T04:00:52.904Z,69.79
2022-11-02T04:03:25.919Z,69.77
2022-11-02T04:06:01.482Z,70.26
2022-11-02T04:08:40.917Z,69.66
2022-11-02T04:11:33.960Z,69.57
2022-11-02T04:14:39.842Z,69.87
2022-11-02T04:17:40.052Z,69.74
2022-11-02T04:20:17.793Z,69.68
2022-11-02T04:23:09.307Z,69.17
2022-11-02T04:25:42.234Z,69.42
2022-11-02T04:28:20.516Z,69.76
2022-11-02T04:30:59.153Z,69.27
2022-11-02T04:33:33.624Z,69.48
2022-11-02T04:36:15.761Z,69.51
2022-11-02T04:38:51.862Z,69.26
2022-11-02T04:41:46.465Z,69.33
2022-11-02T04:44:27.919Z,69.20
2022-11-02T04:47:11.527Z,69.11
2022-11-02T04:49:44.303Z,69.24
2022-11-02T04:52:21.409Z,68.73
2022-11-02T04:54:58.227Z,69.13
2022-11-02T04:57:31.518Z,69.10
2022-11-02T05:00:07.798Z,68.72
2022-11-02T05:02:40.886Z,68.62
2022-11-02T05:05:14.095Z,68.17
2022-11-02T05:07:47.810Z,68.83
2022-11-02T05:10:22.064Z,68.79
2022-11-02T05:12:58.433Z,68.57
2022-11-02T05:15:34.300Z,68.31
2022-11-02T05:18:16.140Z,68.14
2022-11-02T05:20:52.503Z,68.46
2022-11-02T05:23:26.797Z,68.00
2022-11-02T05:26:02.347Z,68.33
2022-11-02T05:28:37.300Z,67.88
2022-11-02T05:31:11.159Z,67.70
2022-11-02T05:33:44.583Z,67.87
2022-11-02T05:36:21.785Z,67.89
2022-11-02T05:38:57.294Z,67.59
2022-11-02T05:41:44.138Z,67.25
2022-11-02T05:44:17.426Z,67.89
2022-11-02T05:46:50.944Z,67.24
2022-11-02T05:49:23.659Z,67.47
2022-11-02T05:51:56.410Z,67.47
2022-11-02T05:54:29.873Z,67.33
2022-11-02T05:57:04.108Z,67.22
2022-11-02T05:59:36.913Z,67.43
2022-11-02T06:02:09.727Z,67.51
2022-11-02T06:04:42.559Z,66.81
2022-11-02T06:07:15.361Z,66.83
2022-11-02T06:09:48.534Z,67.47
2022-11-02T06:12:22.813Z,67.18
2022-11-02T06:14:55.923Z,67.05
2022-11-02T06:17:28.494Z,67.29
2022-11-02T06:20:01.251Z,66.98
2022-11-02T06:22:40.229Z,67.60
2022-11-02T06:25:13.898Z,66.64
2022-11-02T06:27:55.060Z,66.69
2022-11-02T06:30:29.968Z,67.07
2022-11-02T06:33:07.016Z,67.41
2022-11-02T06:35:40.410Z,67.47
2022-11-02T06:38:13.039Z,67.17
2022-11-02T06:40:54.511Z,67.36
2022-11-02T06:43:28.989Z,66.69
2022-11-02T06:46:02.803Z,67.00
2022-11-02T06:48:36.258Z,66.89
2022-11-02T06:51:09.262Z,67.11
2022-11-02T06:53:41.874Z,67.00
2022-11-02T06:56:15.426Z,66.77
2022-11-02T06:58:49.501Z,66.67
2022-11-02T07:01:22.436Z,67.02
2022-11-02T07:03:55.163Z,67.27
2022-11-02T07:06:28.134Z,67.34
2022-11-02T07:09:00.674Z,67.36
2022-11-02T07:11:33.367Z,67.42
2022-11-02T07:14:07.665Z,67.31
2022-11-02T07:16:40.585Z,67.03
2022-11-02T07:19:13.298Z,67.24
2022-11-02T07:21:47.765Z,67.46
2022-11-02T07:24:20.837Z,67.34
2022-11-02T07:26:53.521Z,67.60
2022-11-02T07:29:27.659Z,67.03
2022-11-02T07:32:00.266Z,67.44
2022-11-02T07:34:32.916Z,67.06
2022-11-02T07:37:05.777Z,67.26
2022-11-02T07:39:38.612Z,67.33
2022-11-02T07:42:11.322Z,66.98
2022-11-02T07:44:45.320Z,67.40
2022-11-02T07:47:18.877Z,66.99
2022-11-02T07:49:51.624Z,66.87
2022-11-02T07:52:24.298Z,67.31
2022-11-02T07:54:57.139Z,66.68
2022-11-02T07:57:30.454Z,67.49
2022-11-02T08:00:05.525Z,67.70
2022-11-02T08:02:44.299Z,66.80
2022-11-02T08:05:17.259Z,67.00
2022-11-02T08:07:57.596Z,66.98
2022-11-02T08:10:35.447Z,67.30
2022-11-02T08:13:13.618Z,67.05
2022-11-02T08:15:50.315Z,67.16
2022-11-02T08:18:24.451Z,66.95
2022-11-02T08:20:58.420Z,66.98
2022-11-02T08:23:31.317Z,67.10
2022-11-02T08:26:04.037Z,67.00
2022-11-02T08:28:40.078Z,66.99
2022-11-02T08:31:16.537Z,67.32
2022-11-02T08:33:49.246Z,67.27
2022-11-02T08:36:21.927Z,67.07
2022-11-02T08:38:54.690Z,66.82
2022-11-02T08:41:27.388Z,67.04
2022-11-02T08:44:00.369Z,66.44
2022-11-02T08:46:34.413Z,66.67
2022-11-02T08:49:07.486Z,66.43
2022-11-02T08:51:40.023Z,66.96
2022-11-02T08:54:12.795Z,67.04
2022-11-02T08:56:45.515Z,66.74
2022-11-02T08:59:19.499Z,65.97
2022-11-02T09:01:53.634Z,66.48
2022-11-02T09:04:26.653Z,66.17
2022-11-02T09:06:59.574Z,66.30
2022-11-02T09:09:32.448Z,66.47
2022-11-02T09:12:05.683Z,66.44
2022-11-02T09:14:38.934Z,65.92
2022-11-02T09:17:13.073Z,66.13
2022-11-02T09:19:45.808Z,66.07
2022-11-02T09:22:18.516Z,66.56
2022-11-02T09:24:51.526Z,66.80
2022-11-02T09:27:24.235Z,66.23
2022-11-02T09:29:56.929Z,66.60
2022-11-02T09:32:33.387Z,66.81
2022-11-02T09:35:08.930Z,66.65
2022-11-02T09:37:49.982Z,67.03
2022-11-02T09:40:26.066Z,66.92
2022-11-02T09:43:07.223Z,66.86
2022-11-02T09:45:54.088Z,67.16
2022-11-02T09:48:33.946Z,66.97
2022-11-02T09:51:11.896Z,67.19
2022-11-02T09:53:56.040Z,66.28
2022-11-02T09:56:30.923Z,66.11
2022-11-02T09:59:06.888Z,65.68
2022-11-02T10:01:55.922Z,66.66
2022-11-02T10:05:01.856Z,65.83
2022-11-02T10:07:59.542Z,65.99
2022-11-02T10:10:38.001Z,65.95
2022-11-02T10:13:23.835Z,65.37
2022-11-02T10:16:01.293Z,66.31
2022-11-02T10:18:36.621Z,64.84
2022-11-02T10:21:14.625Z,64.54
2022-11-02T10:23:52.338Z,64.76
2022-11-02T10:26:28.349Z,64.40
2022-11-02T10:29:16.761Z,63.57
2022-11-02T10:31:49.632Z,63.73
2022-11-02T10:34:27.170Z,64.98
2022-11-02T10:37:16.393Z,65.44
2022-11-02T10:39:57.571Z,64.94
2022-11-02T10:42:44.844Z,65.38
2022-11-02T10:45:38.953Z,65.46
2022-11-02T10:48:20.929Z,66.03
2022-11-02T10:51:01.559Z,66.52
2022-11-02T10:53:41.610Z,65.61
2022-11-02T10:56:22.201Z,66.21
2022-11-02T10:59:03.239Z,66.06
2022-11-02T11:01:36.081Z,65.08
2022-11-02T11:04:22.229Z,64.94
2022-11-02T11:06:56.583Z,64.80
2022-11-02T11:09:41.697Z,65.10
2022-11-02T11:12:22.488Z,64.93
2022-11-02T11:20:45.370Z,65.36
2022-11-02T11:23:22.238Z,64.76
2022-11-02T11:25:58.831Z,64.10
2022-11-02T11:28:34.157Z,64.20
2022-11-02T11:31:15.496Z,63.65
2022-11-02T11:33:51.532Z,63.78
2022-11-02T11:36:30.554Z,64.25
2022-11-02T11:39:05.805Z,64.11
2022-11-02T11:41:41.791Z,64.59
2022-11-02T11:44:16.561Z,63.35
2022-11-02T11:46:54.438Z,65.19
2022-11-02T11:50:02.836Z,63.94
2022-11-02T11:52:32.043Z,64.47
2022-11-02T11:55:22.105Z,65.54
2022-11-02T11:58:15.180Z,65.82
2022-11-02T12:01:10.218Z,65.11
2022-11-02T12:03:54.156Z,65.10
2022-11-02T12:06:29.189Z,65.18
2022-11-02T12:09:08.026Z,64.59
2022-11-02T12:11:54.902Z,65.86
2022-11-02T12:14:42.528Z,65.34
2022-11-02T12:17:41.540Z,65.42
2022-11-02T12:20:29.125Z,64.72
2022-11-02T12:23:09.536Z,64.87
2022-11-02T12:25:51.402Z,65.17
2022-11-02T12:28:39.875Z,64.55
2022-11-02T12:31:25.879Z,64.96
2022-11-02T12:34:19.841Z,65.39
2022-11-02T12:40:14.569Z,64.69
2022-11-02T12:42:54.172Z,64.03
2022-11-02T12:45:37.291Z,64.33
2022-11-02T12:48:20.245Z,63.73
2022-11-02T12:50:59.833Z,63.40
2022-11-02T12:53:44.355Z,63.43
2022-11-02T12:56:22.058Z,64.19
2022-11-02T12:58:56.567Z,64.13
2022-11-02T13:01:35.894Z,64.48
2022-11-02T13:04:18.347Z,63.87
2022-11-02T13:06:54.037Z,63.66
2022-11-02T13:09:31.509Z,63.93
2022-11-02T13:12:09.405Z,64.35
2022-11-02T13:14:46.767Z,64.31
2022-11-02T13:17:23.467Z,64.98
2022-11-02T13:20:01.630Z,64.65
2022-11-02T13:22:39.388Z,64.12
2022-11-02T13:25:17.425Z,64.88
2022-11-02T13:27:54.202Z,65.19
2022-11-02T13:30:28.446Z,64.66
2022-11-02T13:33:05.347Z,65.20
2022-11-02T13:35:40.911Z,65.41
2022-11-02T13:38:30.127Z,65.15
2022-11-02T13:41:19.119Z,65.19
2022-11-02T13:44:24.661Z,65.40
2022-11-02T13:47:12.927Z,65.09
2022-11-02T13:49:51.342Z,64.88
2022-11-02T13:52:35.265Z,64.58
2022-11-02T13:55:10.753Z,64.81
2022-11-02T13:57:47.203Z,64.92
2022-11-02T14:00:32.938Z,65.55
2022-11-02T14:03:14.539Z,65.16
2022-11-02T14:05:51.835Z,65.10
2022-11-02T14:08:35.557Z,64.98
2022-11-02T14:11:25.549Z,64.88
2022-11-02T14:14:22.911Z,64.90
2022-11-02T14:17:13.523Z,64.21
2022-11-02T14:19:55.433Z,64.75
2022-11-02T14:22:31.099Z,63.96
2022-11-02T14:25:26.237Z,64.38
2022-11-02T14:28:02.303Z,64.75
2022-11-02T14:30:48.934Z,64.53
2022-11-02T14:33:53.545Z,64.47
2022-11-02T14:36:42.314Z,64.47
2022-11-02T14:39:24.648Z,64.67
2022-11-02T14:42:13.588Z,64.10
2022-11-02T14:45:22.019Z,64.71
2022-11-02T14:47:59.195Z,64.12
2022-11-02T14:50:32.986Z,64.63
2022-11-02T14:53:09.508Z,63.80
2022-11-02T14:55:43.367Z,64.12
2022-11-02T14:58:20.179Z,64.21
2022-11-02T15:00:59.259Z,64.56
2022-11-02T15:03:36.533Z,65.00
2022-11-02T15:06:18.900Z,65.43
2022-11-02T15:08:55.915Z,65.26
2022-11-02T15:11:45.183Z,65.08
2022-11-02T15:14:54.915Z,65.04
2022-11-02T15:17:53.658Z,64.81
2022-11-02T15:20:32.115Z,64.49
2022-11-02T15:23:29.499Z,64.55
2022-11-02T15:26:07.231Z,65.18
2022-11-02T15:28:40.199Z,64.98
2022-11-02T15:31:21.786Z,65.15
2022-11-02T15:34:00.633Z,64.72
2022-11-02T15:36:37.344Z,65.52
2022-11-02T15:39:12.585Z,64.99
2022-11-02T15:41:46.739Z,65.20
2022-11-02T15:44:42.870Z,65.20
2022-11-02T15:47:28.059Z,65.47
2022-11-02T15:50:31.101Z,64.66
2022-11-02T15:53:23.402Z,65.35
2022-11-02T15:56:14.389Z,65.21
2022-11-02T15:59:06.268Z,64.99
2022-11-02T16:01:40.676Z,64.98
2022-11-02T16:04:22.913Z,64.79
2022-11-02T16:06:56.548Z,64.86
2022-11-02T16:09:34.949Z,65.04
2022-11-02T16:12:13.266Z,64.59
2022-11-02T16:14:54.035Z,64.45
2022-11-02T16:17:29.181Z,64.59
2022-11-02T16:20:19.199Z,65.22
2022-11-02T16:22:55.865Z,64.95
2022-11-02T16:25:40.003Z,64.62
2022-11-02T16:28:22.034Z,64.71
2022-11-02T16:31:15.662Z,64.36
2022-11-02T16:33:52.335Z,64.13
2022-11-02T16:36:28.444Z,64.32
2022-11-02T16:39:03.508Z,64.62
2022-11-02T16:41:37.430Z,64.25
2022-11-02T16:44:12.841Z,65.13
2022-11-02T16:46:50.633Z,64.71
2022-11-02T16:49:24.887Z,64.80
2022-11-02T16:52:00.308Z,64.84
2022-11-02T16:54:41.264Z,64.91
2022-11-02T16:57:19.387Z,65.08
2022-11-02T16:59:55.189Z,65.15
2022-11-02T17:02:35.972Z,64.99
2022-11-02T17:05:18.798Z,65.09
2022-11-02T17:08:00.377Z,65.00
2022-11-02T17:10:36.601Z,64.92
2022-11-02T17:13:21.885Z,65.25
2022-11-02T17:15:56.884Z,65.05
2022-11-02T17:18:30.301Z,65.31
2022-11-02T17:21:26.152Z,65.16
2022-11-02T17:24:00.758Z,64.91
2022-11-02T17:26:37.448Z,65.18
2022-11-02T17:29:33.079Z,65.36
2022-11-02T17:32:07.323Z,65.01
2022-11-02T17:34:40.715Z,64.88
2022-11-02T17:37:23.786Z,64.17
2022-11-02T17:40:01.507Z,64.53
2022-11-02T17:42:52.072Z,64.51
2022-11-02T17:45:28.378Z,64.52
2022-11-02T17:48:02.981Z,63.93
2022-11-02T17:50:38.260Z,64.69
2022-11-02T17:53:13.814Z,64.34
2022-11-02T17:55:47.969Z,63.99
2022-11-02T17:58:20.712Z,64.07
2022-11-02T18:00:54.727Z,64.11
2022-11-02T18:03:31.094Z,63.97
2022-11-02T18:06:04.615Z,64.33
2022-11-02T18:09:01.515Z,64.29
2022-11-02T18:11:35.876Z,64.69
2022-11-02T18:14:14.078Z,63.79
2022-11-02T18:16:47.867Z,64.60
2022-11-02T18:19:20.786Z,64.60
2022-11-02T18:21:54.067Z,64.78
2022-11-02T18:24:27.798Z,64.28
2022-11-02T18:27:01.828Z,65.13
2022-11-02T18:29:34.703Z,65.14
2022-11-02T18:32:07.522Z,64.77
2022-11-02T18:34:40.442Z,65.22
2022-11-02T18:37:13.156Z,65.14
2022-11-02T18:39:45.889Z,65.15
2022-11-02T18:42:20.399Z,64.95
2022-11-02T18:44:53.027Z,65.19
2022-11-02T18:47:26.100Z,64.73
2022-11-02T18:50:00.131Z,65.20
2022-11-02T18:52:33.128Z,64.67
2022-11-02T18:55:06.763Z,64.61
2022-11-02T18:57:40.920Z,64.41
2022-11-02T19:00:14.738Z,64.80
2022-11-02T19:02:47.518Z,64.71
2022-11-02T19:05:38.154Z,64.83
2022-11-02T19:08:28.847Z,64.59
2022-11-02T19:11:01.704Z,65.12
2022-11-02T19:13:35.714Z,64.63
2022-11-02T19:16:08.870Z,64.81
2022-11-02T19:18:41.678Z,64.57
2022-11-02T19:21:14.596Z,64.92
2022-11-02T19:23:47.340Z,64.86
2022-11-02T19:26:20.012Z,64.62
2022-11-02T19:28:54.288Z,64.61
2022-11-02T19:31:27.125Z,65.01
2022-11-02T19:34:00.799Z,64.86
2022-11-02T19:36:33.788Z,64.90
2022-11-02T19:39:08.482Z,64.65
2022-11-02T19:41:41.472Z,65.19
2022-11-02T19:44:15.540Z,64.48
2022-11-02T19:46:48.631Z,65.15
2022-11-02T19:49:21.301Z,65.31
2022-11-02T19:51:54.118Z,65.32
2022-11-02T19:54:26.820Z,65.24
2022-11-02T19:56:59.721Z,64.81
2022-11-02T19:59:34.122Z,65.51
2022-11-02T20:02:06.790Z,64.89
2022-11-02T20:04:42.322Z,64.99
2022-11-02T20:07:15.452Z,64.71
2022-11-02T20:09:48.239Z,64.93
2022-11-02T20:12:21.008Z,65.07
2022-11-02T20:14:55.024Z,64.87
2022-11-02T20:17:41.891Z,64.94
2022-11-02T20:20:21.261Z,65.14
2022-11-02T20:22:53.856Z,64.66
2022-11-02T20:25:28.764Z,64.87
2022-11-02T20:28:01.473Z,65.11
2022-11-02T20:30:35.611Z,65.51
2022-11-02T20:33:08.315Z,64.72
2022-11-02T20:35:44.767Z,65.31
2022-11-02T20:38:17.951Z,65.16
2022-11-02T20:40:50.687Z,65.16
2022-11-02T20:43:23.403Z,64.67
2022-11-02T20:46:31.480Z,64.54
2022-11-02T20:49:01.445Z,64.51
2022-11-02T20:51:41.933Z,64.29
2022-11-02T20:54:14.632Z,64.63
2022-11-02T20:56:47.538Z,64.47
2022-11-02T20:59:20.373Z,64.65
2022-11-02T21:01:54.538Z,64.93
2022-11-02T21:04:27.392Z,64.59
2022-11-02T21:07:00.288Z,64.80
2022-11-02T21:09:33.078Z,64.79
2022-11-02T21:12:23.691Z,64.67
2022-11-02T21:14:56.445Z,64.91
2022-11-02T21:17:30.786Z,64.48
2022-11-02T21:20:28.476Z,65.25
2022-11-02T21:22:57.795Z,65.24
2022-11-02T21:25:30.677Z,65.67
2022-11-02T21:28:03.691Z,65.20
2022-11-02T21:30:36.276Z,65.44
2022-11-02T21:33:10.369Z,65.39
2022-11-02T21:35:43.031Z,65.25
2022-11-02T21:38:15.761Z,64.90
2022-11-02T21:40:48.693Z,64.97
2022-11-02T21:43:21.535Z,65.46
2022-11-02T21:45:55.804Z,65.08
2022-11-02T21:48:32.472Z,65.17
2022-11-02T21:51:07.657Z,64.90
2022-11-02T21:53:42.051Z,65.08
2022-11-02T21:56:16.815Z,64.81
2022-11-02T21:58:50.242Z,64.82
2022-11-02T22:01:43.369Z,65.05
2022-11-02T22:04:21.800Z,65.22
2022-11-02T22:06:55.173Z,64.90
2022-11-02T22:09:28.624Z,65.11
2022-11-02T22:12:18.954Z,65.17
2022-11-02T22:14:52.955Z,64.92
2022-11-02T22:17:48.732Z,65.35
2022-11-02T22:20:19.868Z,64.81
2022-11-02T22:22:53.626Z,65.27
2022-11-02T22:25:26.415Z,65.32
2022-11-02T22:27:59.123Z,65.46
2022-11-02T22:30:32.105Z,65.26
2022-11-02T22:33:05.882Z,65.66
2022-11-02T22:35:40.167Z,65.42
2022-11-02T22:38:30.815Z,65.72
2022-11-02T22:41:04.215Z,65.09
2022-11-02T22:43:36.967Z,65.21
2022-11-02T22:46:10.877Z,65.06
2022-11-02T22:48:43.774Z,65.30
2022-11-02T22:51:19.089Z,65.16
2022-11-02T22:53:52.489Z,65.87
2022-11-02T22:56:25.219Z,65.53
2022-11-02T22:58:59.208Z,65.71
2022-11-02T23:01:33.455Z,65.46
2022-11-02T23:04:07.420Z,65.46
2022-11-02T23:06:41.700Z,65.55
2022-11-02T23:09:14.675Z,65.80
2022-11-02T23:11:47.429Z,65.38
2022-11-02T23:14:21.391Z,65.65
2022-11-02T23:16:57.111Z,65.09
2022-11-02T23:19:30.036Z,65.54
2022-11-02T23:22:23.829Z,65.22
2022-11-02T23:25:15.361Z,64.95
2022-11-02T23:28:12.660Z,65.10
2022-11-02T23:31:03.555Z,65.42
2022-11-02T23:33:36.791Z,65.55
2022-11-02T23:36:13.194Z,65.30
2022-11-02T23:39:06.906Z,65.28
2022-11-02T23:41:39.552Z,65.31
2022-11-02T23:44:13.847Z,65.57
2022-11-02T23:46:49.735Z,65.70
2022-11-02T23:49:22.461Z,65.55
2022-11-02T23:52:13.051Z,65.64
2022-11-02T23:55:04.809Z,65.79
2022-11-02T23:57:37.552Z,65.61
